Aérodrome :







RETROUVEZ-NOUS SUR...

 
LOGIN :

S'inscrire | Disclaimer

   EN    FR    IT 

 









Légende :    VFR   VFR Marginal   IFR   IFR Intensif   IFR Très Intensif
Visi : 
Plafond : 
>= 8 km
>= 3000ft
5 à 8 km
1000 à 3000 ft
1500m à 5 km
500 à 1000 ft
800 à 1500m
200 à 500 ft
< 800m
< 200 ft
Symboles :   Orages  Brouillard  Fortes neiges  Fortes précipitations  Vent > 20 kt






- Altitude de l'aérodrome : 180 ft
- Code IATA : YZV


CYZV - Sept-Iles

DERNIER METAR :
  • 261700Z 36009KT 30SM FEW050 FEW140 FEW260 M03/M16 A3016 RMK SC1AC1CI2 SC TR AC TR SLP220

METARs EXPIRÉS :
  • 261600Z 35012KT 30SM FEW050 FEW150 FEW250 M04/M15 A3016 RMK SC1AC1CI2 SC TR AC TR SLP219
  • 261500Z 36014G20KT 30SM FEW050 FEW140 FEW260 M05/M14 A3014 RMK SC1AC1CI2 SC TR AC TR SLP213

TAF TAF CYZV
Valide du 26 à 12h jusqu'au 27 à 12h UTC


261138Z 2612/2712 35010KT P6SM FEW020
FM270000 02008KT P6SM SKC
BECMG 2710/2712 05012KT RMK NXT FCST BY 261800Z



MET'MAP, la Météo Aéronautique d'un coup d'oeil ! - Copyright ORBIFLY Décembre 2007 - Disclaimer

ORBIFLY MET'MAP TEAM :

Programmation & Développement : Alexandra Zaïnal
Sur une idée originale de : Baudouin d'Aumeries
Assistance à la programmation : Marc-Olivier Méhu
Soutien technique & logistique : Manuel Goepfert

Contact : metmap@orbifly.com




SOURCES & CREDITS :

   NOAA